createdAt,value
2022-12-08T00:01:27.760Z,30.08
2022-12-08T00:03:56.301Z,33.72
2022-12-08T00:06:58.183Z,29.33
2022-12-08T00:09:38.663Z,26.67
2022-12-08T00:12:11.072Z,28.98
2022-12-08T00:14:44.053Z,27.00
2022-12-08T00:17:14.154Z,28.92
2022-12-08T00:19:42.194Z,28.20
2022-12-08T00:22:11.055Z,30.17
2022-12-08T00:24:40.099Z,26.30
2022-12-08T00:27:12.218Z,21.20
2022-12-08T00:29:39.063Z,28.55
2022-12-08T00:32:07.008Z,23.88
2022-12-08T00:34:34.484Z,25.25
2022-12-08T00:37:01.343Z,24.40
2022-12-08T00:39:28.526Z,31.00
2022-12-08T00:42:13.420Z,28.77
2022-12-08T00:47:13.496Z,21.35
2022-12-08T00:49:40.557Z,26.30
2022-12-08T00:52:08.222Z,27.55
2022-12-08T00:54:35.181Z,25.85
2022-12-08T00:57:02.243Z,27.23
2022-12-08T00:59:29.210Z,32.60
2022-12-08T01:01:56.028Z,23.48
2022-12-08T01:04:23.060Z,25.08
2022-12-08T01:06:50.365Z,26.30
2022-12-08T01:09:18.567Z,22.33
2022-12-08T01:11:46.735Z,24.52
2022-12-08T01:14:14.294Z,25.00
2022-12-08T01:16:41.982Z,25.02
2022-12-08T01:19:12.210Z,20.35
2022-12-08T01:21:40.724Z,30.73
2022-12-08T01:24:10.239Z,23.92
2022-12-08T01:26:36.990Z,22.75
2022-12-08T01:29:03.961Z,33.95
2022-12-08T01:31:30.733Z,25.67
2022-12-08T01:33:59.146Z,25.67
2022-12-08T01:36:32.323Z,26.90
2022-12-08T01:39:02.415Z,25.23
2022-12-08T01:41:36.253Z,27.15
2022-12-08T01:44:24.659Z,28.17
2022-12-08T01:46:53.398Z,29.30
2022-12-08T01:49:27.144Z,24.70
2022-12-08T01:52:17.118Z,21.27
2022-12-08T01:54:50.310Z,27.48
2022-12-08T01:57:37.303Z,24.00
2022-12-08T02:00:12.062Z,23.30
2022-12-08T02:03:01.362Z,26.35
2022-12-08T02:05:32.268Z,26.77
2022-12-08T02:08:02.472Z,29.83
2022-12-08T02:10:33.332Z,27.83
2022-12-08T02:13:01.543Z,24.88
2022-12-08T02:16:15.209Z,26.80
2022-12-08T02:19:29.842Z,27.40
2022-12-08T02:21:58.499Z,19.85
2022-12-08T02:24:38.943Z,22.17
2022-12-08T02:27:30.488Z,23.40
2022-12-08T02:30:26.827Z,20.98
2022-12-08T02:33:36.867Z,19.58
2022-12-08T02:36:32.793Z,26.25
2022-12-08T02:39:51.747Z,21.95
2022-12-08T02:42:33.367Z,22.42
2022-12-08T02:45:17.604Z,26.58
2022-12-08T02:47:45.692Z,17.08
2022-12-08T02:50:13.157Z,22.98
2022-12-08T02:52:46.757Z,26.25
2022-12-08T02:55:29.713Z,24.20
2022-12-08T02:58:35.566Z,24.05
2022-12-08T03:01:05.735Z,23.15
2022-12-08T03:03:57.491Z,18.65
2022-12-08T03:06:45.172Z,19.23
2022-12-08T03:09:29.447Z,24.00
2022-12-08T03:12:14.335Z,17.20
2022-12-08T03:17:15.702Z,18.50
2022-12-08T03:19:46.782Z,23.35
2022-12-08T03:22:17.078Z,20.63
2022-12-08T03:24:46.685Z,18.98
2022-12-08T03:27:23.155Z,21.27
2022-12-08T03:29:54.879Z,20.60
2022-12-08T03:32:33.925Z,26.17
2022-12-08T03:35:09.186Z,23.17
2022-12-08T03:37:41.032Z,28.45
2022-12-08T03:40:12.859Z,24.23
2022-12-08T03:42:39.617Z,27.73
2022-12-08T03:45:07.594Z,32.65
2022-12-08T03:47:34.388Z,29.27
2022-12-08T03:50:01.298Z,38.35
2022-12-08T03:52:28.359Z,40.53
2022-12-08T03:54:55.151Z,43.78
2022-12-08T03:57:22.104Z,41.53
2022-12-08T03:59:48.879Z,46.22
2022-12-08T04:02:15.717Z,43.47
2022-12-08T04:04:44.551Z,41.65
2022-12-08T04:07:11.358Z,39.25
2022-12-08T04:09:39.434Z,35.08
2022-12-08T04:12:06.562Z,35.60
2022-12-08T04:14:33.339Z,35.50
2022-12-08T04:17:00.105Z,40.70
2022-12-08T04:19:26.946Z,29.05
2022-12-08T04:21:53.922Z,35.47
2022-12-08T04:24:20.671Z,31.50
2022-12-08T04:26:47.443Z,34.65
2022-12-08T04:29:14.207Z,27.13
2022-12-08T04:31:41.028Z,33.20
2022-12-08T04:34:09.828Z,25.48
2022-12-08T04:36:36.718Z,34.47
2022-12-08T04:39:04.149Z,27.48
2022-12-08T04:41:31.325Z,23.73
2022-12-08T04:43:58.083Z,29.70
2022-12-08T04:46:24.902Z,21.17
2022-12-08T04:48:51.719Z,21.35
2022-12-08T04:51:22.026Z,24.10
2022-12-08T04:53:48.990Z,24.35
2022-12-08T04:56:19.593Z,28.83
2022-12-08T04:58:46.878Z,20.98
2022-12-08T05:01:14.273Z,22.35
2022-12-08T05:03:41.235Z,25.58
2022-12-08T05:06:11.199Z,24.15
2022-12-08T05:08:37.993Z,20.92
2022-12-08T05:11:07.754Z,21.40
2022-12-08T05:13:34.809Z,22.20
2022-12-08T05:16:11.541Z,17.65
2022-12-08T05:18:39.326Z,19.98
2022-12-08T05:21:07.526Z,23.45
2022-12-08T05:23:35.232Z,20.63
2022-12-08T05:26:02.301Z,19.13
2022-12-08T05:28:44.656Z,18.02
2022-12-08T05:31:13.642Z,17.55
2022-12-08T05:33:40.976Z,20.98
2022-12-08T05:36:09.303Z,20.58
2022-12-08T05:38:36.445Z,23.20
2022-12-08T05:41:03.991Z,18.27
2022-12-08T05:43:31.006Z,21.95
2022-12-08T05:45:57.884Z,23.95
2022-12-08T05:48:24.997Z,23.77
2022-12-08T05:50:52.653Z,22.05
2022-12-08T05:53:20.996Z,26.63
2022-12-08T05:55:48.308Z,25.75
2022-12-08T05:58:19.326Z,20.35
2022-12-08T06:00:47.811Z,28.38
2022-12-08T06:03:17.636Z,28.65
2022-12-08T06:05:47.008Z,30.00
2022-12-08T06:08:14.320Z,26.98
2022-12-08T06:10:44.413Z,34.67
2022-12-08T06:13:11.228Z,34.88
2022-12-08T06:15:39.362Z,26.40
2022-12-08T06:18:07.324Z,34.72
2022-12-08T06:20:35.377Z,33.70
2022-12-08T06:23:03.623Z,31.38
2022-12-08T06:25:30.891Z,29.38
2022-12-08T06:27:57.737Z,25.23
2022-12-08T06:30:24.574Z,28.40
2022-12-08T06:32:51.387Z,29.52
2022-12-08T06:35:18.286Z,28.30
2022-12-08T06:37:45.395Z,29.85
2022-12-08T06:40:13.000Z,26.60
2022-12-08T06:42:46.750Z,28.98
2022-12-08T06:45:16.539Z,25.90
2022-12-08T06:47:44.361Z,31.13
2022-12-08T06:50:13.243Z,31.98
2022-12-08T06:52:53.054Z,28.27
2022-12-08T06:55:50.701Z,23.73
2022-12-08T06:58:11.187Z,24.90
2022-12-08T07:00:38.036Z,26.55
2022-12-08T07:03:04.889Z,26.63
2022-12-08T07:05:31.671Z,36.03
2022-12-08T07:07:58.578Z,25.73
2022-12-08T07:10:25.432Z,24.20
2022-12-08T07:12:52.662Z,25.17
2022-12-08T07:15:20.288Z,25.08
2022-12-08T07:17:48.703Z,28.65
2022-12-08T07:20:16.232Z,32.05
2022-12-08T07:22:51.647Z,26.65
2022-12-08T07:25:19.399Z,31.33
2022-12-08T07:27:47.319Z,29.95
2022-12-08T07:30:15.174Z,33.03
2022-12-08T07:32:42.003Z,29.48
2022-12-08T07:35:11.271Z,30.50
2022-12-08T07:37:38.592Z,30.45
2022-12-08T07:40:08.334Z,35.28
2022-12-08T07:42:35.523Z,30.92
2022-12-08T07:45:02.563Z,27.38
2022-12-08T07:47:29.417Z,27.38
2022-12-08T07:49:56.528Z,31.67
2022-12-08T07:52:23.556Z,32.83
2022-12-08T07:54:50.458Z,36.35
2022-12-08T07:57:17.366Z,43.15
2022-12-08T07:59:44.136Z,38.88
2022-12-08T08:02:26.578Z,36.15
2022-12-08T08:04:53.817Z,33.35
2022-12-08T08:07:20.754Z,38.20
2022-12-08T08:09:47.560Z,39.28
2022-12-08T08:12:30.705Z,40.97
2022-12-08T08:15:03.247Z,32.17
2022-12-08T08:17:30.733Z,35.03
2022-12-08T08:19:57.939Z,43.30
2022-12-08T08:22:26.047Z,41.83
2022-12-08T08:24:54.043Z,47.15
2022-12-08T08:27:21.520Z,40.35
2022-12-08T08:29:48.610Z,40.45
2022-12-08T08:32:15.399Z,40.85
2022-12-08T08:34:42.182Z,80.38
2022-12-08T08:37:09.032Z,63.78
2022-12-08T08:39:35.966Z,57.50
2022-12-08T08:42:03.429Z,60.80
2022-12-08T08:44:30.212Z,65.70
2022-12-08T08:46:57.023Z,61.20
2022-12-08T08:49:23.862Z,63.92
2022-12-08T08:51:52.378Z,65.97
2022-12-08T08:54:19.304Z,63.60
2022-12-08T08:56:46.087Z,68.07
2022-12-08T08:59:12.900Z,57.17
2022-12-08T09:01:39.734Z,51.35
2022-12-08T09:04:06.664Z,48.83
2022-12-08T09:06:33.490Z,51.55
2022-12-08T09:09:01.094Z,51.17
2022-12-08T09:11:27.941Z,62.42
2022-12-08T09:13:55.824Z,61.08
2022-12-08T09:16:22.932Z,73.57
2022-12-08T09:18:50.303Z,78.72
2022-12-08T09:21:23.026Z,73.10
2022-12-08T09:23:51.984Z,85.15
2022-12-08T09:26:22.527Z,102.20
2022-12-08T09:28:51.463Z,102.80
2022-12-08T09:31:20.545Z,109.50
2022-12-08T09:33:48.573Z,97.22
2022-12-08T09:36:15.371Z,89.25
2022-12-08T09:38:42.214Z,90.75
2022-12-08T09:41:47.633Z,99.35
2022-12-08T09:44:52.278Z,88.70
2022-12-08T09:47:35.276Z,86.75
2022-12-08T09:50:08.345Z,94.45
2022-12-08T09:53:10.045Z,86.20
2022-12-08T09:55:55.465Z,76.10
2022-12-08T09:58:57.395Z,85.60
2022-12-08T10:01:30.300Z,82.63
2022-12-08T10:03:57.382Z,85.78
2022-12-08T10:06:48.497Z,100.82
2022-12-08T10:09:33.819Z,69.85
2022-12-08T10:12:22.623Z,77.22
2022-12-08T10:15:03.978Z,63.90
2022-12-08T10:17:45.022Z,58.53
2022-12-08T10:20:24.120Z,51.75
2022-12-08T10:23:14.430Z,54.33
2022-12-08T10:25:49.791Z,79.18
2022-12-08T10:28:16.595Z,57.13
2022-12-08T10:30:43.905Z,53.65
2022-12-08T10:33:20.571Z,70.65
2022-12-08T10:35:54.228Z,65.57
2022-12-08T10:38:38.200Z,57.70
2022-12-08T10:41:10.538Z,61.28
2022-12-08T10:43:48.380Z,53.33
2022-12-08T10:46:21.024Z,66.63
2022-12-08T10:48:55.042Z,61.28
2022-12-08T10:51:43.483Z,51.45
2022-12-08T10:54:37.390Z,51.08
2022-12-08T10:57:04.962Z,69.13
2022-12-08T10:59:34.023Z,64.20
2022-12-08T11:02:01.261Z,46.53
2022-12-08T11:04:36.952Z,45.67
2022-12-08T11:07:07.587Z,44.63
2022-12-08T11:09:42.126Z,53.33
2022-12-08T11:12:15.313Z,53.20
2022-12-08T11:14:45.904Z,43.03
2022-12-08T11:17:27.556Z,51.10
2022-12-08T11:20:04.131Z,44.97
2022-12-08T11:22:42.187Z,50.22
2022-12-08T11:25:11.637Z,47.95
2022-12-08T11:27:47.763Z,54.25
2022-12-08T11:30:23.443Z,50.75
2022-12-08T11:33:21.718Z,50.72
2022-12-08T11:35:55.972Z,48.63
2022-12-08T11:38:26.632Z,45.85
2022-12-08T11:41:17.460Z,46.80
2022-12-08T11:44:10.058Z,47.10
2022-12-08T11:46:42.857Z,54.95
2022-12-08T11:49:12.793Z,45.28
2022-12-08T11:51:51.819Z,45.97
2022-12-08T11:54:34.835Z,46.90
2022-12-08T11:57:05.244Z,47.83
2022-12-08T11:59:39.688Z,49.67
2022-12-08T12:02:15.178Z,50.20
2022-12-08T12:06:05.866Z,43.45
2022-12-08T12:09:10.357Z,33.08
2022-12-08T12:12:14.260Z,41.47
2022-12-08T12:14:56.017Z,25.40
2022-12-08T12:17:45.720Z,18.52
2022-12-08T12:20:21.584Z,19.88
2022-12-08T12:22:56.551Z,22.30
2022-12-08T12:25:25.684Z,18.85
2022-12-08T12:27:57.290Z,26.48
2022-12-08T12:30:32.977Z,31.85
2022-12-08T12:33:02.482Z,177.45
2022-12-08T12:35:31.611Z,79.13
2022-12-08T12:38:53.387Z,193.68
2022-12-08T12:41:46.658Z,169.55
2022-12-08T12:44:13.390Z,166.40
2022-12-08T12:46:46.245Z,107.45
2022-12-08T12:49:40.996Z,127.43
2022-12-08T12:52:16.700Z,39.97
2022-12-08T12:54:50.308Z,36.60
2022-12-08T12:57:20.175Z,21.83
2022-12-08T12:59:55.524Z,21.98
2022-12-08T13:02:28.016Z,18.85
2022-12-08T13:04:59.801Z,19.27
2022-12-08T13:07:45.467Z,23.92
2022-12-08T13:10:23.844Z,20.58
2022-12-08T13:13:12.837Z,21.80
2022-12-08T13:15:48.957Z,20.15
2022-12-08T13:18:21.691Z,17.25
2022-12-08T13:21:05.026Z,22.60
2022-12-08T13:23:40.802Z,22.55
2022-12-08T13:26:22.271Z,19.08
2022-12-08T13:29:04.185Z,19.48
2022-12-08T13:31:51.628Z,22.67
2022-12-08T13:34:52.825Z,21.05
2022-12-08T13:37:29.409Z,17.90
2022-12-08T13:40:04.501Z,20.65
2022-12-08T13:42:40.649Z,24.92
2022-12-08T13:45:43.581Z,25.98
2022-12-08T13:48:27.036Z,34.53
2022-12-08T13:57:10.448Z,24.27
2022-12-08T13:59:44.807Z,18.02
2022-12-08T14:02:31.495Z,20.35
2022-12-08T14:07:48.976Z,19.48
2022-12-08T14:10:26.385Z,19.02
2022-12-08T14:13:06.912Z,19.63
2022-12-08T14:15:38.423Z,22.52
2022-12-08T14:18:29.039Z,25.27
2022-12-08T14:21:21.575Z,26.90
2022-12-08T14:23:49.095Z,24.13
2022-12-08T14:26:15.873Z,19.02
2022-12-08T14:28:45.214Z,18.35
2022-12-08T14:31:14.753Z,18.90
2022-12-08T14:33:42.125Z,19.05
2022-12-08T14:36:10.453Z,24.30
2022-12-08T14:38:37.449Z,26.10
2022-12-08T14:41:09.042Z,31.02
2022-12-08T14:43:36.284Z,32.30
2022-12-08T14:46:21.770Z,34.10
2022-12-08T14:48:48.654Z,56.53
2022-12-08T14:51:24.294Z,68.38
2022-12-08T14:54:02.870Z,41.08
2022-12-08T14:56:52.135Z,49.08
2022-12-08T14:59:37.244Z,40.15
2022-12-08T15:04:46.623Z,25.42
2022-12-08T15:07:22.738Z,23.10
2022-12-08T15:10:10.029Z,18.08
2022-12-08T15:12:37.367Z,18.58
2022-12-08T15:15:09.975Z,15.43
2022-12-08T15:17:51.821Z,17.92
2022-12-08T15:20:43.317Z,14.60
2022-12-08T15:23:49.607Z,16.05
2022-12-08T15:26:26.111Z,18.65
2022-12-08T15:28:54.145Z,14.55
2022-12-08T15:31:22.414Z,15.38
2022-12-08T15:33:49.827Z,16.58
2022-12-08T15:36:16.651Z,16.45
2022-12-08T15:38:43.614Z,15.05
2022-12-08T15:41:14.978Z,16.58
2022-12-08T15:43:42.263Z,20.75
2022-12-08T15:46:09.106Z,21.67
2022-12-08T15:48:38.132Z,21.60
2022-12-08T15:51:04.925Z,17.73
2022-12-08T15:53:31.713Z,19.20
2022-12-08T15:58:56.899Z,23.30
2022-12-08T16:01:24.795Z,20.42
2022-12-08T16:09:33.928Z,27.45
2022-12-08T16:12:19.723Z,32.87
2022-12-08T16:15:48.480Z,25.10
2022-12-08T16:17:34.854Z,26.13
2022-12-08T16:20:04.071Z,22.42
2022-12-08T16:25:22.163Z,21.02
2022-12-08T16:30:42.483Z,21.35
2022-12-08T16:33:12.147Z,27.48
2022-12-08T16:35:40.361Z,36.63
2022-12-08T16:38:07.581Z,60.50
2022-12-08T16:40:54.894Z,45.95
2022-12-08T16:43:21.663Z,32.45
2022-12-08T16:45:48.501Z,24.45
2022-12-08T16:48:16.955Z,29.70
2022-12-08T16:50:45.890Z,23.25
2022-12-08T16:53:13.654Z,23.17
2022-12-08T16:55:40.914Z,26.33
2022-12-08T16:58:07.755Z,20.88
2022-12-08T17:00:38.071Z,22.60
2022-12-08T17:03:08.210Z,19.48
2022-12-08T17:05:35.640Z,24.15
2022-12-08T17:08:02.461Z,24.10
2022-12-08T17:10:34.499Z,22.42
2022-12-08T17:13:02.369Z,21.35
2022-12-08T17:15:29.332Z,23.25
2022-12-08T17:17:56.290Z,23.83
2022-12-08T17:20:27.301Z,27.98
2022-12-08T17:22:57.619Z,26.58
2022-12-08T17:25:27.092Z,30.25
2022-12-08T17:27:54.439Z,26.33
2022-12-08T17:30:21.622Z,26.40
2022-12-08T17:32:48.598Z,44.55
2022-12-08T17:35:15.477Z,46.42
2022-12-08T17:37:43.673Z,42.05
2022-12-08T17:40:11.236Z,46.10
2022-12-08T17:42:39.092Z,41.63
2022-12-08T17:45:08.259Z,40.42
2022-12-08T17:47:35.712Z,45.53
2022-12-08T17:50:03.067Z,54.10
2022-12-08T17:52:30.058Z,62.50
2022-12-08T17:54:56.882Z,61.25
2022-12-08T17:57:23.713Z,50.50
2022-12-08T17:59:50.734Z,62.47
2022-12-08T18:02:18.694Z,50.65
2022-12-08T18:04:45.827Z,47.70
2022-12-08T18:07:12.646Z,42.15
2022-12-08T18:09:39.482Z,39.15
2022-12-08T18:12:06.699Z,40.40
2022-12-08T18:14:33.549Z,45.22
2022-12-08T18:17:00.497Z,50.08
2022-12-08T18:19:28.030Z,37.83
2022-12-08T18:21:56.000Z,40.88
2022-12-08T18:24:24.242Z,53.63
2022-12-08T18:26:52.737Z,57.50
2022-12-08T18:29:21.497Z,50.45
2022-12-08T18:31:48.615Z,46.35
2022-12-08T18:34:15.609Z,67.35
2022-12-08T18:36:42.711Z,42.80
2022-12-08T18:39:25.509Z,59.78
2022-12-08T18:42:23.362Z,53.55
2022-12-08T18:45:09.637Z,62.35
2022-12-08T18:47:39.648Z,59.42
2022-12-08T18:50:09.731Z,74.93
2022-12-08T18:52:36.559Z,66.65
2022-12-08T18:55:07.043Z,66.85
2022-12-08T18:57:39.016Z,66.28
2022-12-08T19:00:09.569Z,79.13
2022-12-08T19:02:38.736Z,74.28
2022-12-08T19:05:08.274Z,67.95
2022-12-08T19:07:35.701Z,80.55
2022-12-08T19:10:02.731Z,78.05
2022-12-08T19:12:30.206Z,84.22
2022-12-08T19:14:58.275Z,85.20
2022-12-08T19:17:26.225Z,82.30
2022-12-08T19:19:53.184Z,82.45
2022-12-08T19:22:21.155Z,80.25
2022-12-08T19:24:49.765Z,87.15
2022-12-08T19:27:17.280Z,86.47
2022-12-08T19:29:44.163Z,90.20
2022-12-08T19:32:10.988Z,92.28
2022-12-08T19:34:37.848Z,87.32
2022-12-08T19:37:04.791Z,77.63
2022-12-08T19:39:50.534Z,70.05
2022-12-08T19:42:38.608Z,58.10
2022-12-08T19:45:15.030Z,68.13
2022-12-08T19:47:42.646Z,57.35
2022-12-08T19:50:30.622Z,62.28
2022-12-08T19:52:58.173Z,56.63
2022-12-08T19:55:25.878Z,46.65
2022-12-08T19:57:53.947Z,51.80
2022-12-08T20:00:21.778Z,52.70
2022-12-08T20:02:48.675Z,48.97
2022-12-08T20:05:15.911Z,43.92
2022-12-08T20:07:43.583Z,46.25
2022-12-08T20:10:29.685Z,53.45
2022-12-08T20:13:17.132Z,46.17
2022-12-08T20:15:45.430Z,56.13
2022-12-08T20:18:14.543Z,58.75
2022-12-08T20:20:44.022Z,61.00
2022-12-08T20:23:11.298Z,69.15
2022-12-08T20:25:44.599Z,69.53
2022-12-08T20:28:11.761Z,70.00
2022-12-08T20:30:41.460Z,104.32
2022-12-08T20:33:08.705Z,112.32
2022-12-08T20:35:35.667Z,120.70
2022-12-08T20:38:02.449Z,104.80
2022-12-08T20:40:29.263Z,84.38
2022-12-08T20:42:56.125Z,67.85
2022-12-08T20:45:22.921Z,71.82
2022-12-08T20:47:49.765Z,67.75
2022-12-08T20:50:16.603Z,71.72
2022-12-08T20:52:43.403Z,61.20
2022-12-08T20:55:10.870Z,70.35
2022-12-08T20:57:38.053Z,64.80
2022-12-08T21:00:07.192Z,63.60
2022-12-08T21:02:34.541Z,58.03
2022-12-08T21:05:01.720Z,58.65
2022-12-08T21:07:28.692Z,65.38
2022-12-08T21:09:55.797Z,55.30
2022-12-08T21:12:22.623Z,44.67
2022-12-08T21:14:49.963Z,50.60
2022-12-08T21:17:16.966Z,50.47
2022-12-08T21:19:43.916Z,45.10
2022-12-08T21:22:11.102Z,47.15
2022-12-08T21:24:37.918Z,47.78
2022-12-08T21:27:04.878Z,45.28
2022-12-08T21:29:31.899Z,47.85
2022-12-08T21:32:00.471Z,50.55
2022-12-08T21:34:32.652Z,58.95
2022-12-08T21:37:00.322Z,59.40
2022-12-08T21:39:28.188Z,55.78
2022-12-08T21:42:13.679Z,47.97
2022-12-08T21:44:40.793Z,56.55
2022-12-08T21:47:07.615Z,48.33
2022-12-08T21:49:35.037Z,51.70
2022-12-08T21:52:02.286Z,50.90
2022-12-08T21:54:29.302Z,52.33
2022-12-08T21:56:56.525Z,57.55
2022-12-08T21:59:23.380Z,51.25
2022-12-08T22:01:50.810Z,50.30
2022-12-08T22:04:21.547Z,47.78
2022-12-08T22:06:51.375Z,56.88
2022-12-08T22:09:18.412Z,47.10
2022-12-08T22:11:45.651Z,55.03
2022-12-08T22:14:14.835Z,54.05
2022-12-08T22:16:43.348Z,46.80
2022-12-08T22:19:11.058Z,51.25
2022-12-08T22:21:38.472Z,49.97
2022-12-08T22:24:05.887Z,43.45
2022-12-08T22:26:33.067Z,56.90
2022-12-08T22:29:00.491Z,46.95
2022-12-08T22:31:27.855Z,52.22
2022-12-08T22:33:55.122Z,46.40
2022-12-08T22:36:27.469Z,48.53
2022-12-08T22:38:55.291Z,45.55
2022-12-08T22:41:22.946Z,61.25
2022-12-08T22:43:50.828Z,47.35
2022-12-08T22:46:22.120Z,47.92
2022-12-08T22:48:50.198Z,47.80
2022-12-08T22:51:18.386Z,46.75
2022-12-08T22:53:46.186Z,55.05
2022-12-08T22:56:15.348Z,68.50
2022-12-08T22:58:43.091Z,64.85
2022-12-08T23:01:26.635Z,56.25
2022-12-08T23:03:54.180Z,46.10
2022-12-08T23:06:21.122Z,50.90
2022-12-08T23:08:48.734Z,58.03
2022-12-08T23:11:17.260Z,44.80
2022-12-08T23:13:44.610Z,45.20
2022-12-08T23:16:12.841Z,48.30
2022-12-08T23:18:45.470Z,51.90
2022-12-08T23:21:16.831Z,47.60
2022-12-08T23:23:43.880Z,43.67
2022-12-08T23:26:23.456Z,44.17
2022-12-08T23:28:51.188Z,41.83
2022-12-08T23:31:19.027Z,43.05
2022-12-08T23:33:46.280Z,44.97
2022-12-08T23:36:16.151Z,54.85
2022-12-08T23:38:43.794Z,41.92
2022-12-08T23:41:13.115Z,42.70
2022-12-08T23:43:46.279Z,48.05
2022-12-08T23:46:15.124Z,43.00
2022-12-08T23:48:42.174Z,36.75
2022-12-08T23:51:09.214Z,44.85
2022-12-08T23:53:36.845Z,40.15
2022-12-08T23:56:08.247Z,41.17
2022-12-08T23:58:36.656Z,44.67
